Keret — UAEH — position and weather

sailwx.info

Track history (hours):
 
Tides and Currents Weather Stations Pressure Air Temp Water Temp Dewpoint Dewpoint Depression Visibility Wind Speed Wind Dir Waves Ship Positions

Keret

Last reported at 2014-Nov-29 01:05 UTC. Time now 2014-Nov-29 03:38 UTC.
Position N 50°05' W 003°24'.

Length 82 m; draft 4 m.

Type: Cargo ship. MMSI: 273333000.

Date/timePositionNaut miles runAvg speedWind from/ knotsBaromVisibWave heightAir tempDewpointWater temp
2014-Nov-29 01:05N 50°05' W 003°24'4 8.4
2014-Nov-29 00:33N 50°08' W 003°19'8 8.1
2014-Nov-28 23:33N 50°13' W 003°09'8 8.1
2014-Nov-28 22:33N 50°18' W 002°59'9 8.6
2014-Nov-28 21:31N 50°24' W 002°48'  
2014-Nov-26 11:30N 50°36' E 000°18'6 6.7
2014-Nov-26 10:33N 50°38' E 000°27'8 7.8
2014-Nov-26 09:33N 50°41' E 000°39'10 9.5
2014-Nov-26 08:33N 50°46' E 000°51'2310.3
2014-Nov-26 06:18N 51°01' E 001°20'7 9.3
2014-Nov-26 05:33N 51°05' E 001°29'8 7.7
2014-Nov-26 04:33N 51°10' E 001°38'7 7.0
2014-Nov-26 03:33N 51°15' E 001°46'7 6.8
2014-Nov-26 02:32N 51°21' E 001°51'8 7.9
2014-Nov-26 01:33N 51°27' E 001°58'12 9.2
2014-Nov-26 00:17N 51°36' E 002°10'145 9.2
2014-Nov-25 08:32N 53°29' E 004°40'8 7.8
2014-Nov-25 07:32N 53°32' E 004°52'9 8.1
2014-Nov-25 06:24N 53°36' E 005°06'7 8.7
2014-Nov-25 05:33N 53°38' E 005°18'10 9.5
2014-Nov-25 04:33N 53°41' E 005°34'1010.0
2014-Nov-25 03:33N 53°44' E 005°49'60 8.0
2014-Nov-24 20:03N 53°60' E 007°27'3 6.8
2014-Nov-24 19:33N 54°01' E 007°33'7 6.9
2014-Nov-24 18:33N 54°02' E 007°45'7 6.7
2014-Nov-24 17:33N 54°02' E 007°56'7 7.0
2014-Nov-24 16:33N 54°01' E 008°08'8 8.3
2014-Nov-24 15:33N 54°00' E 008°22'1010.1
2014-Nov-24 14:33N 53°57' E 008°39'8 8.2
2014-Nov-24 13:33N 53°51' E 008°47'7 7.0
2014-Nov-24 12:33N 53°51' E 008°59'6 6.2
2014-Nov-24 11:33N 53°54' E 009°09'1 0.6
2014-Nov-24 10:33N 53°54' E 009°09'0 0.0
2014-Nov-24 09:33N 53°54' E 009°09'0 0.0
2014-Nov-24 08:34N 53°54' E 009°09'0 0.0
2014-Nov-24 07:33N 53°54' E 009°09'0 0.0
2014-Nov-24 06:33N 53°54' E 009°09'2 2.2
2014-Nov-24 05:33N 53°56' E 009°12'7 7.0
2014-Nov-24 04:33N 54°02' E 009°18'15 7.3
2014-Nov-24 02:30N 54°13' E 009°35'7 7.6
2014-Nov-24 01:33N 54°19' E 009°43'7 7.2
2014-Nov-24 00:33N 54°21' E 009°54'8 8.1
2014-Nov-23 23:33N 54°22' E 010°08'1 1.1
2014-Nov-23 22:33N 54°22' E 010°10'5 4.6
2014-Nov-23 21:33N 54°26' E 010°13'8 8.3
2014-Nov-23 20:33N 54°32' E 010°24'9 8.6
2014-Nov-23 19:33N 54°35' E 010°38'31 9.5
2014-Nov-23 16:15N 54°30' E 011°32'7 9.5
2014-Nov-23 15:33N 54°27' E 011°42'10 9.0
2014-Nov-23 14:30N 54°26' E 011°59'97 8.5
2014-Nov-23 03:07N 55°18' E 014°22'6 8.2
2014-Nov-23 02:21N 55°22' E 014°29'384 9.2
2014-Nov-21 08:25N 59°39' E 023°22'11 9.3
2014-Nov-21 07:15N 59°42' E 023°42'87 8.9
2014-Nov-20 21:33N 60°13' E 026°23'8 8.2
2014-Nov-20 20:33N 60°21' E 026°19'4 0.6
2014-Nov-20 13:33N 60°25' E 026°15'0 0.0
2014-Nov-20 12:07N 60°25' E 026°15'0 0.0
2014-Nov-20 11:33N 60°25' E 026°15'0 0.0
2014-Nov-20 10:33N 60°25' E 026°15'0 0.0
2014-Nov-20 09:32N 60°25' E 026°15'0 0.0
2014-Nov-20 08:32N 60°25' E 026°15'0 0.0
2014-Nov-20 07:32N 60°25' E 026°15'0 0.0
2014-Nov-20 06:31N 60°25' E 026°15'0 0.0
2014-Nov-20 05:33N 60°25' E 026°15'0 0.0
2014-Nov-20 04:33N 60°25' E 026°15'0 0.0
2014-Nov-20 03:33N 60°25' E 026°15'0 0.0
2014-Nov-20 02:33N 60°25' E 026°15'0 0.0
2014-Nov-20 01:33N 60°25' E 026°15'0 0.1
2014-Nov-20 00:33N 60°25' E 026°16'0 0.0
2014-Nov-19 23:33N 60°25' E 026°16'0 0.0
2014-Nov-19 22:33N 60°25' E 026°16'0 0.0
2014-Nov-19 21:33N 60°25' E 026°16'0 0.0
2014-Nov-19 20:33N 60°25' E 026°16'7 6.6
2014-Nov-19 19:33N 60°19' E 026°22'7 7.5
2014-Nov-19 18:33N 60°11' E 026°20'0 0.1
2014-Nov-19 17:33N 60°11' E 026°20'5 5.4
2014-Nov-19 16:33N 60°12' E 026°31'8 8.5
2014-Nov-19 15:33N 60°05' E 026°40'  
Track history (hours):
 
Tides and Currents Weather Stations Pressure Air Temp Water Temp Dewpoint Dewpoint Depression Visibility Wind Speed Wind Dir Waves Ship Positions

Keret

Last reported at 2014-Nov-29 01:05 UTC. Time now 2014-Nov-29 03:38 UTC.
Position N 50°05' W 003°24'.

Length 82 m; draft 4 m.

Type: Cargo ship. MMSI: 273333000.

Date/timePositionNaut miles runAvg speedWind from/ knotsBaromVisibWave heightAir tempDewpointWater temp
2014-Nov-29 01:05N 50°05' W 003°24'4 8.4
2014-Nov-29 00:33N 50°08' W 003°19'8 8.1
2014-Nov-28 23:33N 50°13' W 003°09'8 8.1
2014-Nov-28 22:33N 50°18' W 002°59'9 8.6
2014-Nov-28 21:31N 50°24' W 002°48'  
2014-Nov-26 11:30N 50°36' E 000°18'6 6.7
2014-Nov-26 10:33N 50°38' E 000°27'8 7.8
2014-Nov-26 09:33N 50°41' E 000°39'10 9.5
2014-Nov-26 08:33N 50°46' E 000°51'2310.3
2014-Nov-26 06:18N 51°01' E 001°20'7 9.3
2014-Nov-26 05:33N 51°05' E 001°29'8 7.7
2014-Nov-26 04:33N 51°10' E 001°38'7 7.0
2014-Nov-26 03:33N 51°15' E 001°46'7 6.8
2014-Nov-26 02:32N 51°21' E 001°51'8 7.9
2014-Nov-26 01:33N 51°27' E 001°58'12 9.2
2014-Nov-26 00:17N 51°36' E 002°10'145 9.2
2014-Nov-25 08:32N 53°29' E 004°40'8 7.8
2014-Nov-25 07:32N 53°32' E 004°52'9 8.1
2014-Nov-25 06:24N 53°36' E 005°06'7 8.7
2014-Nov-25 05:33N 53°38' E 005°18'10 9.5
2014-Nov-25 04:33N 53°41' E 005°34'1010.0
2014-Nov-25 03:33N 53°44' E 005°49'60 8.0
2014-Nov-24 20:03N 53°60' E 007°27'3 6.8
2014-Nov-24 19:33N 54°01' E 007°33'7 6.9
2014-Nov-24 18:33N 54°02' E 007°45'7 6.7
2014-Nov-24 17:33N 54°02' E 007°56'7 7.0
2014-Nov-24 16:33N 54°01' E 008°08'8 8.3
2014-Nov-24 15:33N 54°00' E 008°22'1010.1
2014-Nov-24 14:33N 53°57' E 008°39'8 8.2
2014-Nov-24 13:33N 53°51' E 008°47'7 7.0
2014-Nov-24 12:33N 53°51' E 008°59'6 6.2
2014-Nov-24 11:33N 53°54' E 009°09'1 0.6
2014-Nov-24 10:33N 53°54' E 009°09'0 0.0
2014-Nov-24 09:33N 53°54' E 009°09'0 0.0
2014-Nov-24 08:34N 53°54' E 009°09'0 0.0
2014-Nov-24 07:33N 53°54' E 009°09'0 0.0
2014-Nov-24 06:33N 53°54' E 009°09'2 2.2
2014-Nov-24 05:33N 53°56' E 009°12'7 7.0
2014-Nov-24 04:33N 54°02' E 009°18'15 7.3
2014-Nov-24 02:30N 54°13' E 009°35'7 7.6
2014-Nov-24 01:33N 54°19' E 009°43'7 7.2
2014-Nov-24 00:33N 54°21' E 009°54'8 8.1
2014-Nov-23 23:33N 54°22' E 010°08'1 1.1
2014-Nov-23 22:33N 54°22' E 010°10'5 4.6
2014-Nov-23 21:33N 54°26' E 010°13'8 8.3
2014-Nov-23 20:33N 54°32' E 010°24'9 8.6
2014-Nov-23 19:33N 54°35' E 010°38'31 9.5
2014-Nov-23 16:15N 54°30' E 011°32'7 9.5
2014-Nov-23 15:33N 54°27' E 011°42'10 9.0
2014-Nov-23 14:30N 54°26' E 011°59'97 8.5
2014-Nov-23 03:07N 55°18' E 014°22'6 8.2
2014-Nov-23 02:21N 55°22' E 014°29'384 9.2
2014-Nov-21 08:25N 59°39' E 023°22'11 9.3
2014-Nov-21 07:15N 59°42' E 023°42'87 8.9
2014-Nov-20 21:33N 60°13' E 026°23'8 8.2
2014-Nov-20 20:33N 60°21' E 026°19'4 0.6
2014-Nov-20 13:33N 60°25' E 026°15'0 0.0
2014-Nov-20 12:07N 60°25' E 026°15'0 0.0
2014-Nov-20 11:33N 60°25' E 026°15'0 0.0
2014-Nov-20 10:33N 60°25' E 026°15'0 0.0
2014-Nov-20 09:32N 60°25' E 026°15'0 0.0
2014-Nov-20 08:32N 60°25' E 026°15'0 0.0
2014-Nov-20 07:32N 60°25' E 026°15'0 0.0
2014-Nov-20 06:31N 60°25' E 026°15'0 0.0
2014-Nov-20 05:33N 60°25' E 026°15'0 0.0
2014-Nov-20 04:33N 60°25' E 026°15'0 0.0
2014-Nov-20 03:33N 60°25' E 026°15'0 0.0
2014-Nov-20 02:33N 60°25' E 026°15'0 0.0
2014-Nov-20 01:33N 60°25' E 026°15'0 0.1
2014-Nov-20 00:33N 60°25' E 026°16'0 0.0
2014-Nov-19 23:33N 60°25' E 026°16'0 0.0
2014-Nov-19 22:33N 60°25' E 026°16'0 0.0
2014-Nov-19 21:33N 60°25' E 026°16'0 0.0
2014-Nov-19 20:33N 60°25' E 026°16'7 6.6
2014-Nov-19 19:33N 60°19' E 026°22'7 7.5
2014-Nov-19 18:33N 60°11' E 026°20'0 0.1
2014-Nov-19 17:33N 60°11' E 026°20'5 5.4
2014-Nov-19 16:33N 60°12' E 026°31'8 8.5
2014-Nov-19 15:33N 60°05' E 026°40'  

Dump ship's entire track history